Terminal Aerodrome Forecast
Issued by NWS Jackson, MS

Current Version | Previous Version | Text Only | Print | Product List | Glossary On
Versions: 1 2 3 4 5 6 7 8 9 10 11 12
000
FTUS44 KJAN 201100
TAFJAN
TAF
KJAN 201131Z 2012/2112 05006KT P6SM BKN009
     FM201400 04007KT P6SM SCT020
     FM201700 02007KT P6SM BKN050
     FM211000 07003KT P6SM OVC015=

USA.gov is the U.S. government's official web portal to all federal, state and local government web resources and services.